createdAt,value
2024-05-09T00:01:46.826Z,99602.02
2024-05-09T00:04:49.674Z,99599.70
2024-05-09T00:07:52.529Z,99595.92
2024-05-09T00:10:55.335Z,99599.58
2024-05-09T00:13:58.233Z,99603.02
2024-05-09T00:17:00.983Z,99604.25
2024-05-09T00:20:10.933Z,99601.83
2024-05-09T00:23:16.836Z,99605.38
2024-05-09T00:26:19.661Z,99607.50
2024-05-09T00:29:22.942Z,99606.46
2024-05-09T00:32:25.906Z,99608.14
2024-05-09T00:35:29.073Z,99608.11
2024-05-09T00:38:32.013Z,99607.38
2024-05-09T00:41:34.962Z,99606.67
2024-05-09T00:44:37.800Z,99603.55
2024-05-09T00:47:42.794Z,99602.55
2024-05-09T00:50:46.736Z,99602.27
2024-05-09T00:53:49.633Z,99602.85
2024-05-09T00:56:53.072Z,99606.86
2024-05-09T00:59:56.281Z,99608.86
2024-05-09T01:02:59.302Z,99602.94
2024-05-09T01:06:02.310Z,99606.29
2024-05-09T01:09:05.190Z,99609.18
2024-05-09T01:12:08.539Z,99615.92
2024-05-09T01:15:11.447Z,99621.30
2024-05-09T01:18:14.872Z,99618.26
2024-05-09T01:21:17.882Z,99614.02
2024-05-09T01:24:20.630Z,99615.31
2024-05-09T01:27:23.409Z,99613.02
2024-05-09T01:30:33.021Z,99611.92
2024-05-09T01:33:38.516Z,99613.48
2024-05-09T01:36:41.544Z,99613.52
2024-05-09T01:39:44.331Z,99611.77
2024-05-09T01:42:47.069Z,99615.61
2024-05-09T01:45:49.744Z,99615.76
2024-05-09T01:48:52.565Z,99624.02
2024-05-09T01:51:55.409Z,99624.58
2024-05-09T01:54:58.695Z,99622.73
2024-05-09T01:58:02.439Z,99617.06
2024-05-09T02:01:05.676Z,99615.48
2024-05-09T02:04:08.734Z,99619.34
2024-05-09T02:07:11.572Z,99624.42
2024-05-09T02:10:20.426Z,99621.38
2024-05-09T02:13:28.716Z,99623.75
2024-05-09T02:16:31.523Z,99626.55
2024-05-09T02:19:34.342Z,99627.71
2024-05-09T02:22:37.264Z,99626.73
2024-05-09T02:25:40.718Z,99617.77
2024-05-09T02:28:43.548Z,99609.54
2024-05-09T02:31:46.462Z,99612.33
2024-05-09T02:34:49.330Z,99617.17
2024-05-09T02:37:52.154Z,99621.23
2024-05-09T02:40:54.839Z,99625.20
2024-05-09T02:43:57.740Z,99629.63
2024-05-09T02:47:00.525Z,99626.23
2024-05-09T02:50:04.571Z,99624.92
2024-05-09T02:53:09.931Z,99628.53
2024-05-09T02:56:12.991Z,99628.73
2024-05-09T02:59:15.976Z,99623.96
2024-05-09T03:02:18.877Z,99620.77
2024-05-09T03:05:21.860Z,99621.64
2024-05-09T03:08:25.933Z,99620.52
2024-05-09T03:11:28.839Z,99619.77
2024-05-09T03:14:31.740Z,99623.28
2024-05-09T03:17:34.751Z,99625.80
2024-05-09T03:20:38.735Z,99628.19
2024-05-09T03:23:43.172Z,99630.11
2024-05-09T03:26:46.397Z,99630.92
2024-05-09T03:29:49.143Z,99635.27
2024-05-09T03:32:51.993Z,99637.98
2024-05-09T03:35:54.863Z,99642.80
2024-05-09T03:38:57.846Z,99643.80
2024-05-09T03:42:00.655Z,99644.40
2024-05-09T03:45:03.745Z,99644.56
2024-05-09T03:48:08.825Z,99650.09
2024-05-09T03:51:12.009Z,99645.30
2024-05-09T03:54:14.839Z,99647.58
2024-05-09T03:57:17.619Z,99649.22
2024-05-09T04:00:30.408Z,99652.05
2024-05-09T04:03:38.962Z,99655.73
2024-05-09T04:06:42.435Z,99658.38
2024-05-09T04:09:45.150Z,99662.11
2024-05-09T04:12:47.814Z,99663.98
2024-05-09T04:15:50.553Z,99655.30
2024-05-09T04:18:53.435Z,99652.98
2024-05-09T04:21:56.330Z,99649.65
2024-05-09T04:24:59.113Z,99657.43
2024-05-09T04:28:02.011Z,99662.58
2024-05-09T04:31:05.092Z,99666.17
2024-05-09T04:34:07.948Z,99665.05
2024-05-09T04:37:10.883Z,99659.41
2024-05-09T04:40:24.114Z,99663.34
2024-05-09T04:43:34.694Z,99662.33
2024-05-09T04:46:38.955Z,99655.84
2024-05-09T04:49:42.013Z,99659.25
2024-05-09T04:52:44.673Z,99662.34
2024-05-09T04:55:47.638Z,99670.16
2024-05-09T04:58:50.537Z,99670.89
2024-05-09T05:01:53.529Z,99675.60
2024-05-09T05:04:56.563Z,99681.41
2024-05-09T05:08:00.039Z,99687.17
2024-05-09T05:11:03.176Z,99694.58
2024-05-09T05:14:06.003Z,99696.08
2024-05-09T05:17:09.001Z,99695.54
2024-05-09T05:20:15.253Z,99697.80
2024-05-09T05:23:22.144Z,99698.92
2024-05-09T05:26:24.931Z,99699.98
2024-05-09T05:29:27.859Z,99699.61
2024-05-09T05:32:30.814Z,99700.20
2024-05-09T05:35:34.429Z,99698.83
2024-05-09T05:38:37.433Z,99703.86
2024-05-09T05:41:40.269Z,99704.27
2024-05-09T05:44:42.968Z,99701.52
2024-05-09T05:47:46.054Z,99703.08
2024-05-09T05:50:49.056Z,99707.50
2024-05-09T05:53:51.933Z,99706.16
2024-05-09T05:56:54.656Z,99705.23
2024-05-09T05:59:57.304Z,99704.79
2024-05-09T06:03:00.103Z,99706.59
2024-05-09T06:06:03.754Z,99700.03
2024-05-09T06:09:06.832Z,99701.45
2024-05-09T06:12:09.722Z,99703.58
2024-05-09T06:15:12.688Z,99701.43
2024-05-09T06:18:15.834Z,99697.66
2024-05-09T06:21:18.699Z,99699.04
2024-05-09T06:24:21.387Z,99702.27
2024-05-09T06:27:24.204Z,99702.89
2024-05-09T06:30:36.501Z,99703.30
2024-05-09T06:33:42.510Z,99704.91
2024-05-09T06:36:45.446Z,99706.02
2024-05-09T06:39:48.172Z,99706.89
2024-05-09T06:42:51.102Z,99708.06
2024-05-09T06:45:53.823Z,99710.75
2024-05-09T06:48:56.967Z,99706.01
2024-05-09T06:51:59.857Z,99702.09
2024-05-09T06:55:02.612Z,99704.16
2024-05-09T06:58:06.848Z,99704.48
2024-05-09T07:01:09.734Z,99701.49
2024-05-09T07:04:12.793Z,99703.61
2024-05-09T07:07:15.810Z,99703.41
2024-05-09T07:10:25.802Z,99698.35
2024-05-09T07:13:35.356Z,99692.65
2024-05-09T07:16:38.076Z,99694.94
2024-05-09T07:19:40.921Z,99693.81
2024-05-09T07:22:43.856Z,99693.64
2024-05-09T07:25:46.704Z,99692.59
